sensor_id;sensor_type;location;lat;lon;timestamp;pressure;altitude;pressure_sealevel;temperature;humidity
5691;BME280;2870;42.680;23.364;2022-12-07T00:01:06;95147.59;;;6.81;91.31
5691;BME280;2870;42.680;23.364;2022-12-07T00:03:34;95154.69;;;6.82;91.48
5691;BME280;2870;42.680;23.364;2022-12-07T00:06:01;95152.09;;;6.71;92.20
5691;BME280;2870;42.680;23.364;2022-12-07T00:08:30;95153.94;;;6.82;92.25
5691;BME280;2870;42.680;23.364;2022-12-07T00:11:00;95149.09;;;6.82;91.87
5691;BME280;2870;42.680;23.364;2022-12-07T00:13:27;95144.28;;;6.96;91.48
5691;BME280;2870;42.680;23.364;2022-12-07T00:15:54;95144.72;;;6.87;91.56
5691;BME280;2870;42.680;23.364;2022-12-07T00:18:20;95142.22;;;6.97;91.30
5691;BME280;2870;42.680;23.364;2022-12-07T00:20:47;95149.22;;;6.90;91.54
5691;BME280;2870;42.680;23.364;2022-12-07T00:23:14;95147.69;;;6.76;91.85
5691;BME280;2870;42.680;23.364;2022-12-07T00:25:42;95141.03;;;6.79;92.23
5691;BME280;2870;42.680;23.364;2022-12-07T00:28:09;95138.16;;;6.98;91.78
5691;BME280;2870;42.680;23.364;2022-12-07T00:30:36;95147.28;;;7.11;90.84
5691;BME280;2870;42.680;23.364;2022-12-07T00:33:03;95145.88;;;6.91;91.68
5691;BME280;2870;42.680;23.364;2022-12-07T00:35:30;95147.19;;;7.04;91.45
5691;BME280;2870;42.680;23.364;2022-12-07T00:37:56;95160.25;;;6.96;91.37
5691;BME280;2870;42.680;23.364;2022-12-07T00:40:23;95158.13;;;7.02;91.73
5691;BME280;2870;42.680;23.364;2022-12-07T00:42:51;95152.97;;;7.06;91.04
5691;BME280;2870;42.680;23.364;2022-12-07T00:45:18;95150.09;;;7.11;90.09
5691;BME280;2870;42.680;23.364;2022-12-07T00:47:45;95150.19;;;7.19;90.16
5691;BME280;2870;42.680;23.364;2022-12-07T00:50:12;95142.03;;;7.34;90.35
5691;BME280;2870;42.680;23.364;2022-12-07T00:52:38;95135.59;;;7.26;89.75
5691;BME280;2870;42.680;23.364;2022-12-07T00:55:06;95138.28;;;7.05;90.72
5691;BME280;2870;42.680;23.364;2022-12-07T00:57:32;95138.19;;;7.11;90.44
5691;BME280;2870;42.680;23.364;2022-12-07T01:00:01;95142.88;;;7.03;90.70
5691;BME280;2870;42.680;23.364;2022-12-07T01:02:27;95132.16;;;7.07;90.73
5691;BME280;2870;42.680;23.364;2022-12-07T01:04:54;95129.56;;;7.09;90.73
5691;BME280;2870;42.680;23.364;2022-12-07T01:07:21;95131.53;;;7.01;91.11
5691;BME280;2870;42.680;23.364;2022-12-07T01:09:48;95137.31;;;6.89;91.65
5691;BME280;2870;42.680;23.364;2022-12-07T01:12:14;95129.69;;;7.03;91.11
5691;BME280;2870;42.680;23.364;2022-12-07T01:14:41;95137.44;;;7.10;90.49
5691;BME280;2870;42.680;23.364;2022-12-07T01:17:10;95124.13;;;7.16;90.64
5691;BME280;2870;42.680;23.364;2022-12-07T01:19:36;95125.53;;;7.10;90.77
5691;BME280;2870;42.680;23.364;2022-12-07T01:22:03;95127.31;;;7.07;90.75
5691;BME280;2870;42.680;23.364;2022-12-07T01:24:30;95117.16;;;7.10;91.12
5691;BME280;2870;42.680;23.364;2022-12-07T01:26:57;95122.06;;;7.17;91.04
5691;BME280;2870;42.680;23.364;2022-12-07T01:29:23;95115.00;;;7.16;91.47
5691;BME280;2870;42.680;23.364;2022-12-07T01:31:50;95113.81;;;7.11;92.18
5691;BME280;2870;42.680;23.364;2022-12-07T01:34:18;95116.19;;;7.21;91.17
5691;BME280;2870;42.680;23.364;2022-12-07T01:36:45;95108.13;;;7.17;91.57
5691;BME280;2870;42.680;23.364;2022-12-07T01:39:12;95112.63;;;7.07;91.00
5691;BME280;2870;42.680;23.364;2022-12-07T01:41:40;95114.13;;;7.08;91.42
5691;BME280;2870;42.680;23.364;2022-12-07T01:44:15;95124.66;;;7.15;91.63
5691;BME280;2870;42.680;23.364;2022-12-07T01:46:43;95120.47;;;7.08;91.74
5691;BME280;2870;42.680;23.364;2022-12-07T01:49:16;95127.56;;;7.09;91.71
5691;BME280;2870;42.680;23.364;2022-12-07T01:51:46;95114.56;;;7.12;91.28
5691;BME280;2870;42.680;23.364;2022-12-07T01:54:15;95107.25;;;7.09;91.42
5691;BME280;2870;42.680;23.364;2022-12-07T01:56:47;95098.38;;;6.97;91.35
5691;BME280;2870;42.680;23.364;2022-12-07T01:59:17;95107.50;;;7.11;90.89
5691;BME280;2870;42.680;23.364;2022-12-07T02:01:44;95084.31;;;7.03;90.50
5691;BME280;2870;42.680;23.364;2022-12-07T02:04:12;95090.63;;;7.03;91.04
5691;BME280;2870;42.680;23.364;2022-12-07T02:06:40;95098.66;;;7.20;90.21
5691;BME280;2870;42.680;23.364;2022-12-07T02:09:09;95090.72;;;7.24;89.72
5691;BME280;2870;42.680;23.364;2022-12-07T02:11:36;95086.69;;;6.99;90.85
5691;BME280;2870;42.680;23.364;2022-12-07T02:14:03;95091.94;;;6.89;91.35
5691;BME280;2870;42.680;23.364;2022-12-07T02:16:36;95098.25;;;6.89;91.91
5691;BME280;2870;42.680;23.364;2022-12-07T02:19:29;95100.19;;;6.95;91.70
5691;BME280;2870;42.680;23.364;2022-12-07T02:22:18;95097.75;;;7.04;91.51
5691;BME280;2870;42.680;23.364;2022-12-07T02:24:53;95105.13;;;7.02;91.09
5691;BME280;2870;42.680;23.364;2022-12-07T02:27:36;95093.53;;;6.98;91.31
5691;BME280;2870;42.680;23.364;2022-12-07T02:30:07;95094.72;;;7.02;91.31
5691;BME280;2870;42.680;23.364;2022-12-07T02:32:42;95086.06;;;6.93;91.51
5691;BME280;2870;42.680;23.364;2022-12-07T02:35:14;95078.41;;;7.06;91.55
5691;BME280;2870;42.680;23.364;2022-12-07T02:37:51;95083.66;;;7.23;90.88
5691;BME280;2870;42.680;23.364;2022-12-07T02:40:26;95080.44;;;7.19;90.83
5691;BME280;2870;42.680;23.364;2022-12-07T02:42:58;95086.13;;;7.13;90.81
5691;BME280;2870;42.680;23.364;2022-12-07T02:45:31;95088.81;;;7.06;90.55
5691;BME280;2870;42.680;23.364;2022-12-07T02:47:59;95086.91;;;7.01;91.01
5691;BME280;2870;42.680;23.364;2022-12-07T02:50:27;95086.25;;;7.08;91.12
5691;BME280;2870;42.680;23.364;2022-12-07T02:52:55;95090.22;;;6.99;90.91
5691;BME280;2870;42.680;23.364;2022-12-07T02:55:25;95081.97;;;6.94;91.05
5691;BME280;2870;42.680;23.364;2022-12-07T02:58:06;95075.75;;;6.87;91.34
5691;BME280;2870;42.680;23.364;2022-12-07T03:00:41;95074.56;;;6.96;90.86
5691;BME280;2870;42.680;23.364;2022-12-07T03:03:13;95074.44;;;7.02;91.15
5691;BME280;2870;42.680;23.364;2022-12-07T03:05:54;95078.31;;;6.99;90.75
5691;BME280;2870;42.680;23.364;2022-12-07T03:08:31;95070.91;;;7.01;90.73
5691;BME280;2870;42.680;23.364;2022-12-07T03:11:05;95068.66;;;7.00;90.42
5691;BME280;2870;42.680;23.364;2022-12-07T03:13:35;95061.16;;;6.95;90.72
5691;BME280;2870;42.680;23.364;2022-12-07T03:16:09;95061.91;;;6.95;90.73
5691;BME280;2870;42.680;23.364;2022-12-07T03:18:41;95062.66;;;6.82;91.05
5691;BME280;2870;42.680;23.364;2022-12-07T03:21:18;95057.94;;;6.77;91.59
5691;BME280;2870;42.680;23.364;2022-12-07T03:23:51;95056.13;;;6.93;90.70
5691;BME280;2870;42.680;23.364;2022-12-07T03:26:22;95059.75;;;6.75;91.68
5691;BME280;2870;42.680;23.364;2022-12-07T03:28:53;95051.81;;;6.79;91.73
5691;BME280;2870;42.680;23.364;2022-12-07T03:31:25;95062.88;;;6.84;91.55
5691;BME280;2870;42.680;23.364;2022-12-07T03:33:59;95058.06;;;6.72;91.92
5691;BME280;2870;42.680;23.364;2022-12-07T03:36:31;95068.13;;;6.61;92.36
5691;BME280;2870;42.680;23.364;2022-12-07T03:39:03;95059.22;;;6.63;92.42
5691;BME280;2870;42.680;23.364;2022-12-07T03:41:34;95067.59;;;6.76;92.94
5691;BME280;2870;42.680;23.364;2022-12-07T03:44:05;95064.38;;;6.85;92.13
5691;BME280;2870;42.680;23.364;2022-12-07T03:46:37;95056.03;;;6.72;92.91
5691;BME280;2870;42.680;23.364;2022-12-07T03:49:14;95066.09;;;6.88;92.76
5691;BME280;2870;42.680;23.364;2022-12-07T03:51:48;95062.88;;;6.84;92.90
5691;BME280;2870;42.680;23.364;2022-12-07T03:54:21;95057.94;;;6.90;92.02
5691;BME280;2870;42.680;23.364;2022-12-07T03:56:50;95056.03;;;6.72;92.31
5691;BME280;2870;42.680;23.364;2022-12-07T03:59:19;95056.75;;;6.73;93.38
5691;BME280;2870;42.680;23.364;2022-12-07T04:01:53;95059.25;;;6.76;92.71
5691;BME280;2870;42.680;23.364;2022-12-07T04:04:21;95056.66;;;6.78;92.58
5691;BME280;2870;42.680;23.364;2022-12-07T04:06:48;95054.72;;;6.60;93.38
5691;BME280;2870;42.680;23.364;2022-12-07T04:09:15;95051.72;;;6.58;93.54
5691;BME280;2870;42.680;23.364;2022-12-07T04:11:43;95060.31;;;6.86;92.77
5691;BME280;2870;42.680;23.364;2022-12-07T04:14:09;95047.66;;;6.72;93.30
5691;BME280;2870;42.680;23.364;2022-12-07T04:16:46;95056.22;;;6.61;93.82
5691;BME280;2870;42.680;23.364;2022-12-07T04:19:15;95047.00;;;6.66;93.73
5691;BME280;2870;42.680;23.364;2022-12-07T04:21:42;95045.94;;;6.56;93.90
5691;BME280;2870;42.680;23.364;2022-12-07T04:24:09;95038.72;;;6.34;94.62
5691;BME280;2870;42.680;23.364;2022-12-07T04:26:36;95046.44;;;6.28;95.07
5691;BME280;2870;42.680;23.364;2022-12-07T04:29:03;95046.78;;;6.51;94.36
5691;BME280;2870;42.680;23.364;2022-12-07T04:31:30;95051.59;;;6.50;94.94
5691;BME280;2870;42.680;23.364;2022-12-07T04:33:57;95059.22;;;6.36;95.07
5691;BME280;2870;42.680;23.364;2022-12-07T04:36:25;95062.94;;;6.39;94.52
5691;BME280;2870;42.680;23.364;2022-12-07T04:38:53;95058.38;;;6.42;94.94
5691;BME280;2870;42.680;23.364;2022-12-07T04:41:21;95054.69;;;6.33;94.99
5691;BME280;2870;42.680;23.364;2022-12-07T04:43:53;95051.91;;;6.33;94.65
5691;BME280;2870;42.680;23.364;2022-12-07T04:46:20;95066.22;;;6.11;95.84
5691;BME280;2870;42.680;23.364;2022-12-07T04:48:47;95067.72;;;6.12;95.99
5691;BME280;2870;42.680;23.364;2022-12-07T04:51:15;95066.47;;;6.26;95.10
5691;BME280;2870;42.680;23.364;2022-12-07T04:53:46;95061.31;;;6.17;95.33
5691;BME280;2870;42.680;23.364;2022-12-07T04:56:13;95067.53;;;6.23;95.36
5691;BME280;2870;42.680;23.364;2022-12-07T04:58:40;95065.28;;;6.22;95.61
5691;BME280;2870;42.680;23.364;2022-12-07T05:01:07;95065.00;;;6.38;94.93
5691;BME280;2870;42.680;23.364;2022-12-07T05:03:35;95064.50;;;6.08;96.18
5691;BME280;2870;42.680;23.364;2022-12-07T05:06:02;95064.28;;;6.06;96.28
5691;BME280;2870;42.680;23.364;2022-12-07T05:08:29;95060.66;;;6.11;96.53
5691;BME280;2870;42.680;23.364;2022-12-07T05:10:58;95063.44;;;6.11;96.35
5691;BME280;2870;42.680;23.364;2022-12-07T05:13:25;95071.56;;;6.09;96.58
5691;BME280;2870;42.680;23.364;2022-12-07T05:15:52;95076.94;;;6.07;96.38
5691;BME280;2870;42.680;23.364;2022-12-07T05:18:18;95067.28;;;6.08;96.25
5691;BME280;2870;42.680;23.364;2022-12-07T05:20:45;95071.38;;;6.07;96.10
5691;BME280;2870;42.680;23.364;2022-12-07T05:23:12;95058.78;;;6.00;96.26
5691;BME280;2870;42.680;23.364;2022-12-07T05:25:39;95057.19;;;5.92;96.72
5691;BME280;2870;42.680;23.364;2022-12-07T05:28:07;95053.91;;;5.88;96.78
5691;BME280;2870;42.680;23.364;2022-12-07T05:30:34;95060.78;;;5.87;97.65
5691;BME280;2870;42.680;23.364;2022-12-07T05:33:01;95075.13;;;5.91;97.44
5691;BME280;2870;42.680;23.364;2022-12-07T05:35:29;95070.47;;;5.99;97.31
5691;BME280;2870;42.680;23.364;2022-12-07T05:37:55;95064.44;;;5.95;97.56
5691;BME280;2870;42.680;23.364;2022-12-07T05:40:22;95068.97;;;5.98;97.43
5691;BME280;2870;42.680;23.364;2022-12-07T05:42:49;95058.78;;;6.00;97.23
5691;BME280;2870;42.680;23.364;2022-12-07T05:45:18;95055.06;;;6.11;97.35
5691;BME280;2870;42.680;23.364;2022-12-07T05:47:45;95059.69;;;6.08;97.55
5691;BME280;2870;42.680;23.364;2022-12-07T05:50:11;95061.41;;;6.11;97.58
5691;BME280;2870;42.680;23.364;2022-12-07T05:52:38;95053.78;;;6.12;97.26
5691;BME280;2870;42.680;23.364;2022-12-07T05:55:06;95058.28;;;6.02;97.60
5691;BME280;2870;42.680;23.364;2022-12-07T05:57:33;95056.34;;;5.97;97.75
5691;BME280;2870;42.680;23.364;2022-12-07T05:59:59;95062.13;;;5.99;97.52
5691;BME280;2870;42.680;23.364;2022-12-07T06:02:27;95058.69;;;6.06;97.23
5691;BME280;2870;42.680;23.364;2022-12-07T06:04:53;95054.78;;;6.15;97.10
5691;BME280;2870;42.680;23.364;2022-12-07T06:07:20;95056.56;;;6.12;97.07
5691;BME280;2870;42.680;23.364;2022-12-07T06:09:47;95056.28;;;6.16;96.75
5691;BME280;2870;42.680;23.364;2022-12-07T06:12:14;95052.75;;;6.15;96.86
5691;BME280;2870;42.680;23.364;2022-12-07T06:14:59;95050.03;;;6.09;97.22
5691;BME280;2870;42.680;23.364;2022-12-07T06:17:27;95059.91;;;6.24;96.59
5691;BME280;2870;42.680;23.364;2022-12-07T06:19:54;95052.94;;;6.17;97.06
5691;BME280;2870;42.680;23.364;2022-12-07T06:22:21;95058.97;;;6.21;96.76
5691;BME280;2870;42.680;23.364;2022-12-07T06:24:48;95057.13;;;6.24;96.82
5691;BME280;2870;42.680;23.364;2022-12-07T06:27:14;95066.47;;;6.13;97.22
5691;BME280;2870;42.680;23.364;2022-12-07T06:29:41;95061.72;;;6.08;97.56
5691;BME280;2870;42.680;23.364;2022-12-07T06:32:08;95063.22;;;6.09;97.79
5691;BME280;2870;42.680;23.364;2022-12-07T06:34:36;95061.09;;;6.15;97.71
5691;BME280;2870;42.680;23.364;2022-12-07T06:37:04;95066.91;;;6.30;96.59
5691;BME280;2870;42.680;23.364;2022-12-07T06:39:31;95073.47;;;6.46;96.62
5691;BME280;2870;42.680;23.364;2022-12-07T06:41:58;95059.13;;;6.42;95.90
5691;BME280;2870;42.680;23.364;2022-12-07T06:44:25;95066.41;;;6.58;95.77
5691;BME280;2870;42.680;23.364;2022-12-07T06:46:52;95076.16;;;6.52;95.92
5691;BME280;2870;42.680;23.364;2022-12-07T06:49:19;95086.56;;;6.64;95.76
5691;BME280;2870;42.680;23.364;2022-12-07T06:51:47;95081.44;;;6.82;95.29
5691;BME280;2870;42.680;23.364;2022-12-07T06:54:15;95080.69;;;6.81;95.05
5691;BME280;2870;42.680;23.364;2022-12-07T06:56:42;95070.91;;;6.75;94.33
5691;BME280;2870;42.680;23.364;2022-12-07T06:59:09;95072.84;;;6.80;94.99
5691;BME280;2870;42.680;23.364;2022-12-07T07:01:36;95083.47;;;6.81;94.48
5691;BME280;2870;42.680;23.364;2022-12-07T07:04:04;95077.25;;;6.75;94.87
5691;BME280;2870;42.680;23.364;2022-12-07T07:06:31;95079.16;;;6.80;94.81
5691;BME280;2870;42.680;23.364;2022-12-07T07:08:59;95068.56;;;6.92;93.56
5691;BME280;2870;42.680;23.364;2022-12-07T07:11:26;95067.16;;;6.99;93.24
5691;BME280;2870;42.680;23.364;2022-12-07T07:13:53;95079.59;;;6.84;93.18
5691;BME280;2870;42.680;23.364;2022-12-07T07:16:22;95071.56;;;6.81;94.26
5691;BME280;2870;42.680;23.364;2022-12-07T07:18:49;95075.66;;;6.93;92.97
5691;BME280;2870;42.680;23.364;2022-12-07T07:21:16;95082.16;;;7.09;93.34
5691;BME280;2870;42.680;23.364;2022-12-07T07:23:43;95081.53;;;7.16;92.64
5691;BME280;2870;42.680;23.364;2022-12-07T07:26:12;95079.25;;;7.14;92.59
5691;BME280;2870;42.680;23.364;2022-12-07T07:28:38;95073.06;;;6.95;92.60
5691;BME280;2870;42.680;23.364;2022-12-07T07:31:05;95083.25;;;7.06;92.31
5691;BME280;2870;42.680;23.364;2022-12-07T07:33:32;95085.78;;;7.30;92.15
5691;BME280;2870;42.680;23.364;2022-12-07T07:35:59;95098.88;;;7.35;91.38
5691;BME280;2870;42.680;23.364;2022-12-07T07:38:26;95092.22;;;7.38;90.77
5691;BME280;2870;42.680;23.364;2022-12-07T07:40:52;95091.38;;;7.30;90.65
5691;BME280;2870;42.680;23.364;2022-12-07T07:43:20;95095.41;;;7.42;90.76
5691;BME280;2870;42.680;23.364;2022-12-07T07:45:48;95099.50;;;7.41;90.14
5691;BME280;2870;42.680;23.364;2022-12-07T07:48:14;95094.81;;;7.70;89.68
5691;BME280;2870;42.680;23.364;2022-12-07T07:50:41;95086.47;;;7.91;88.52
5691;BME280;2870;42.680;23.364;2022-12-07T07:53:08;95095.75;;;7.26;89.76
5691;BME280;2870;42.680;23.364;2022-12-07T07:55:35;95087.19;;;7.71;90.46
5691;BME280;2870;42.680;23.364;2022-12-07T07:58:01;95082.81;;;7.96;87.65
5691;BME280;2870;42.680;23.364;2022-12-07T08:00:30;95092.06;;;7.57;89.22
5691;BME280;2870;42.680;23.364;2022-12-07T08:02:56;95087.47;;;7.81;88.56
5691;BME280;2870;42.680;23.364;2022-12-07T08:05:24;95082.38;;;7.92;88.42
5691;BME280;2870;42.680;23.364;2022-12-07T08:07:51;95091.13;;;7.89;88.09
5691;BME280;2870;42.680;23.364;2022-12-07T08:10:18;95083.31;;;7.74;88.88
5691;BME280;2870;42.680;23.364;2022-12-07T08:12:44;95097.97;;;7.54;90.58
5691;BME280;2870;42.680;23.364;2022-12-07T08:15:30;95082.75;;;7.89;89.63
5691;BME280;2870;42.680;23.364;2022-12-07T08:17:57;95092.00;;;8.05;88.41
5691;BME280;2870;42.680;23.364;2022-12-07T08:20:24;95079.56;;;8.06;88.51
5691;BME280;2870;42.680;23.364;2022-12-07T08:22:51;95088.44;;;7.83;88.43
5691;BME280;2870;42.680;23.364;2022-12-07T08:25:18;95080.19;;;7.78;89.07
5691;BME280;2870;42.680;23.364;2022-12-07T08:27:45;95086.16;;;7.95;87.83
5691;BME280;2870;42.680;23.364;2022-12-07T08:30:12;95087.81;;;8.11;87.66
5691;BME280;2870;42.680;23.364;2022-12-07T08:32:40;95091.81;;;8.44;87.94
5691;BME280;2870;42.680;23.364;2022-12-07T08:35:08;95082.78;;;8.52;84.73
5691;BME280;2870;42.680;23.364;2022-12-07T08:37:35;95085.00;;;8.32;84.73
5691;BME280;2870;42.680;23.364;2022-12-07T08:40:02;95089.97;;;7.71;87.29
5691;BME280;2870;42.680;23.364;2022-12-07T08:42:29;95079.97;;;7.76;88.15
5691;BME280;2870;42.680;23.364;2022-12-07T08:45:03;95075.53;;;8.14;87.70
5691;BME280;2870;42.680;23.364;2022-12-07T08:47:30;95081.59;;;8.26;86.62
5691;BME280;2870;42.680;23.364;2022-12-07T08:49:59;95080.44;;;8.63;85.29
5691;BME280;2870;42.680;23.364;2022-12-07T08:52:29;95076.44;;;8.51;84.28
5691;BME280;2870;42.680;23.364;2022-12-07T08:54:56;95069.81;;;8.41;84.83
5691;BME280;2870;42.680;23.364;2022-12-07T08:57:24;95069.19;;;8.14;86.34
5691;BME280;2870;42.680;23.364;2022-12-07T08:59:51;95068.22;;;8.32;86.31
5691;BME280;2870;42.680;23.364;2022-12-07T09:02:17;95061.97;;;8.39;85.68
5691;BME280;2870;42.680;23.364;2022-12-07T09:04:44;95061.97;;;8.39;84.97
5691;BME280;2870;42.680;23.364;2022-12-07T09:07:12;95055.53;;;8.31;85.51
5691;BME280;2870;42.680;23.364;2022-12-07T09:09:39;95058.34;;;8.31;86.04
5691;BME280;2870;42.680;23.364;2022-12-07T09:12:07;95052.19;;;8.33;86.25
5691;BME280;2870;42.680;23.364;2022-12-07T09:14:33;95056.75;;;8.64;84.86
5691;BME280;2870;42.680;23.364;2022-12-07T09:17:11;95049.22;;;8.52;85.92
5691;BME280;2870;42.680;23.364;2022-12-07T09:19:38;95051.28;;;8.51;84.43
5691;BME280;2870;42.680;23.364;2022-12-07T09:22:06;95052.09;;;8.67;84.54
5691;BME280;2870;42.680;23.364;2022-12-07T09:24:35;95039.53;;;8.81;84.24
5691;BME280;2870;42.680;23.364;2022-12-07T09:27:01;95046.13;;;8.63;84.17
5691;BME280;2870;42.680;23.364;2022-12-07T09:29:28;95037.88;;;8.86;84.64
5691;BME280;2870;42.680;23.364;2022-12-07T09:31:55;95039.56;;;8.89;84.40
5691;BME280;2870;42.680;23.364;2022-12-07T09:34:22;95037.81;;;8.78;84.05
5691;BME280;2870;42.680;23.364;2022-12-07T09:36:49;95037.47;;;8.82;83.69
5691;BME280;2870;42.680;23.364;2022-12-07T09:39:16;95020.63;;;9.02;82.98
5691;BME280;2870;42.680;23.364;2022-12-07T09:41:44;95016.94;;;8.79;83.54
5691;BME280;2870;42.680;23.364;2022-12-07T09:44:14;95018.84;;;8.56;85.25
5691;BME280;2870;42.680;23.364;2022-12-07T09:46:43;95010.81;;;8.81;84.00
5691;BME280;2870;42.680;23.364;2022-12-07T09:49:14;95015.69;;;8.88;84.04
5691;BME280;2870;42.680;23.364;2022-12-07T09:51:43;95007.47;;;8.82;83.46
5691;BME280;2870;42.680;23.364;2022-12-07T09:54:12;94997.25;;;8.92;84.09
5691;BME280;2870;42.680;23.364;2022-12-07T09:56:40;95011.13;;;9.06;84.21
5691;BME280;2870;42.680;23.364;2022-12-07T09:59:13;95004.28;;;9.22;83.24
5691;BME280;2870;42.680;23.364;2022-12-07T10:01:43;95000.91;;;9.16;82.55
5691;BME280;2870;42.680;23.364;2022-12-07T10:04:14;95006.56;;;9.31;82.35
5691;BME280;2870;42.680;23.364;2022-12-07T10:06:42;94999.88;;;9.42;81.03
5691;BME280;2870;42.680;23.364;2022-12-07T10:09:10;94996.34;;;9.49;82.84
5691;BME280;2870;42.680;23.364;2022-12-07T10:11:58;94987.41;;;9.58;81.42
5691;BME280;2870;42.680;23.364;2022-12-07T10:14:28;94999.34;;;9.51;80.01
5691;BME280;2870;42.680;23.364;2022-12-07T10:16:56;94994.00;;;9.17;80.89
5691;BME280;2870;42.680;23.364;2022-12-07T10:19:25;94979.72;;;9.43;80.66
5691;BME280;2870;42.680;23.364;2022-12-07T10:22:12;94984.97;;;9.54;81.13
5691;BME280;2870;42.680;23.364;2022-12-07T10:24:41;94988.69;;;9.49;80.09
5691;BME280;2870;42.680;23.364;2022-12-07T10:27:18;94981.22;;;9.37;80.21
5691;BME280;2870;42.680;23.364;2022-12-07T10:29:52;94973.03;;;9.54;80.77
5691;BME280;2870;42.680;23.364;2022-12-07T10:32:31;94963.00;;;9.97;79.33
5691;BME280;2870;42.680;23.364;2022-12-07T10:35:19;94954.00;;;10.59;76.25
5691;BME280;2870;42.680;23.364;2022-12-07T10:37:46;94950.69;;;10.38;76.18
5691;BME280;2870;42.680;23.364;2022-12-07T10:40:31;94954.78;;;10.06;77.62
5691;BME280;2870;42.680;23.364;2022-12-07T10:43:17;94950.88;;;10.32;76.33
5691;BME280;2870;42.680;23.364;2022-12-07T10:46:07;94955.88;;;10.19;76.90
5691;BME280;2870;42.680;23.364;2022-12-07T10:48:42;94948.06;;;10.25;77.07
5691;BME280;2870;42.680;23.364;2022-12-07T10:51:20;94949.94;;;10.30;76.45
5691;BME280;2870;42.680;23.364;2022-12-07T10:53:57;94953.09;;;10.42;76.12
5691;BME280;2870;42.680;23.364;2022-12-07T10:57:01;94940.56;;;10.20;76.32
5691;BME280;2870;42.680;23.364;2022-12-07T10:59:55;94933.66;;;10.36;76.61
5691;BME280;2870;42.680;23.364;2022-12-07T11:02:41;94928.09;;;10.92;74.99
5691;BME280;2870;42.680;23.364;2022-12-07T11:05:18;94915.31;;;10.50;75.80
5691;BME280;2870;42.680;23.364;2022-12-07T11:07:59;94913.56;;;10.78;74.97
5691;BME280;2870;42.680;23.364;2022-12-07T11:10:32;94914.91;;;11.09;73.68
5691;BME280;2870;42.680;23.364;2022-12-07T11:13:18;94916.28;;;11.01;72.44
5691;BME280;2870;42.680;23.364;2022-12-07T11:16:02;94915.78;;;10.79;73.65
5691;BME280;2870;42.680;23.364;2022-12-07T11:18:41;94913.06;;;11.04;73.43
5691;BME280;2870;42.680;23.364;2022-12-07T11:21:15;94921.47;;;11.12;73.47
5691;BME280;2870;42.680;23.364;2022-12-07T11:23:49;94914.44;;;11.28;72.85
5691;BME280;2870;42.680;23.364;2022-12-07T11:26:27;94908.88;;;11.21;73.59
5691;BME280;2870;42.680;23.364;2022-12-07T11:29:17;94892.88;;;10.98;72.78
5691;BME280;2870;42.680;23.364;2022-12-07T11:31:59;94897.88;;;10.67;74.35
5691;BME280;2870;42.680;23.364;2022-12-07T11:34:38;94878.88;;;10.50;75.33
5691;BME280;2870;42.680;23.364;2022-12-07T11:37:13;94882.22;;;10.56;75.18
5691;BME280;2870;42.680;23.364;2022-12-07T11:39:46;94879.09;;;10.22;76.18
5691;BME280;2870;42.680;23.364;2022-12-07T11:42:20;94880.16;;;10.57;75.36
5691;BME280;2870;42.680;23.364;2022-12-07T11:44:50;94874.50;;;10.65;74.96
5691;BME280;2870;42.680;23.364;2022-12-07T11:47:25;94877.69;;;10.69;73.81
5691;BME280;2870;42.680;23.364;2022-12-07T11:50:01;94875.19;;;10.17;75.51
5691;BME280;2870;42.680;23.364;2022-12-07T11:52:43;94871.44;;;10.22;75.13
5691;BME280;2870;42.680;23.364;2022-12-07T11:55:18;94864.34;;;10.29;75.18
5691;BME280;2870;42.680;23.364;2022-12-07T11:57:52;94865.81;;;10.22;75.22
5691;BME280;2870;42.680;23.364;2022-12-07T12:00:23;94871.34;;;10.60;74.45
5691;BME280;2870;42.680;23.364;2022-12-07T12:02:56;94863.66;;;10.69;74.95
5691;BME280;2870;42.680;23.364;2022-12-07T12:05:27;94852.16;;;10.90;73.96
5691;BME280;2870;42.680;23.364;2022-12-07T12:08:00;94858.16;;;10.86;74.08
5691;BME280;2870;42.680;23.364;2022-12-07T12:10:37;94856.47;;;10.83;73.85
5691;BME280;2870;42.680;23.364;2022-12-07T12:13:20;94851.53;;;10.58;74.20
5691;BME280;2870;42.680;23.364;2022-12-07T12:16:02;94824.34;;;10.13;75.83
5691;BME280;2870;42.680;23.364;2022-12-07T12:18:46;94842.31;;;10.10;76.54
5691;BME280;2870;42.680;23.364;2022-12-07T12:21:23;94837.44;;;10.18;76.26
5691;BME280;2870;42.680;23.364;2022-12-07T12:23:56;94834.63;;;10.33;76.08
5691;BME280;2870;42.680;23.364;2022-12-07T12:26:26;94838.09;;;10.49;75.48
5691;BME280;2870;42.680;23.364;2022-12-07T12:28:56;94837.00;;;10.37;75.86
5691;BME280;2870;42.680;23.364;2022-12-07T12:31:36;94843.41;;;10.30;76.01
5691;BME280;2870;42.680;23.364;2022-12-07T12:34:38;94830.66;;;10.37;75.75
5691;BME280;2870;42.680;23.364;2022-12-07T12:37:41;94829.50;;;10.47;75.62
5691;BME280;2870;42.680;23.364;2022-12-07T12:40:42;94825.91;;;10.62;75.16
5691;BME280;2870;42.680;23.364;2022-12-07T12:43:48;94821.22;;;10.65;74.50
5691;BME280;2870;42.680;23.364;2022-12-07T12:46:51;94809.00;;;10.29;76.26
5691;BME280;2870;42.680;23.364;2022-12-07T12:49:39;94817.75;;;10.41;75.88
5691;BME280;2870;42.680;23.364;2022-12-07T12:52:47;94810.34;;;10.69;75.00
5691;BME280;2870;42.680;23.364;2022-12-07T12:55:27;94801.59;;;10.97;74.52
5691;BME280;2870;42.680;23.364;2022-12-07T12:58:34;94805.78;;;10.81;75.36
5691;BME280;2870;42.680;23.364;2022-12-07T13:01:33;94816.41;;;10.90;75.69
5691;BME280;2870;42.680;23.364;2022-12-07T13:06:56;94823.78;;;10.78;75.51
5691;BME280;2870;42.680;23.364;2022-12-07T13:09:26;94817.16;;;10.91;75.34
5691;BME280;2870;42.680;23.364;2022-12-07T13:12:03;94813.19;;;11.01;75.36
5691;BME280;2870;42.680;23.364;2022-12-07T13:15:19;94813.63;;;11.15;74.43
5691;BME280;2870;42.680;23.364;2022-12-07T13:18:21;94817.81;;;11.06;74.47
5691;BME280;2870;42.680;23.364;2022-12-07T13:20:54;94810.66;;;10.80;75.28
5691;BME280;2870;42.680;23.364;2022-12-07T13:23:24;94814.81;;;10.72;75.64
5691;BME280;2870;42.680;23.364;2022-12-07T13:25:55;94818.91;;;10.78;75.42
5691;BME280;2870;42.680;23.364;2022-12-07T13:28:25;94819.56;;;10.94;75.88
5691;BME280;2870;42.680;23.364;2022-12-07T13:31:02;94818.06;;;11.26;74.67
5691;BME280;2870;42.680;23.364;2022-12-07T13:33:30;94807.69;;;11.36;75.01
5691;BME280;2870;42.680;23.364;2022-12-07T13:36:00;94806.31;;;11.20;74.60
5691;BME280;2870;42.680;23.364;2022-12-07T13:38:30;94811.06;;;11.34;74.23
5691;BME280;2870;42.680;23.364;2022-12-07T13:41:13;94810.63;;;10.88;75.31
5691;BME280;2870;42.680;23.364;2022-12-07T13:43:44;94798.94;;;10.99;75.31
5691;BME280;2870;42.680;23.364;2022-12-07T13:46:12;94796.38;;;10.94;75.98